Impacts TAF Board INFO
FOR SITUATIONAL AWARENESS. NOT TO BE USED FOR FLIGHT PLANNING PURPOSES.
IDs:

KORD - Chicago/O'Hare Intl, IL, US

Issued at 0303 UTC 12 Dec 2017
Updated at 0447 UTC 12 Dec 2017
Potential Impact None Slight Moderate High
Time0351Z 12/05Z 12/06Z 12/07Z 12/08Z 12/09Z 12/10Z 12/11Z 12/12Z 12/13Z 12/14Z 12/15Z 12/16Z 12/17Z>>
Type OBS PRVL PRVL PRVL PRVL PRVL PRVL PRVL PRVL PRVL PRVL PRVL PRVL PRVL
VIS 9 >6 >6 >6 >6 >6 >6 >6 >6 >6 >6 >6 >6 >6
CIG 18 25 25 25 25 25 25 -- -- -- -- -- -- --
Cover OVC OVC OVC OVC OVC OVC OVC SCT SCT SCT SCT SCT SCT SCT
FltCat MVFR MVFR MVFR MVFR MVFR MVFR MVFR VFR VFR VFR VFR VFR VFR VFR
WX -- -- -- -- -- -- -- -- -- -- -- -- -- --
WDir 330 330 330 330 330 330 330 320 320 320 320 320 320 320
WSpd 20 18 18 18 18 18 18 15 15 15 15 15 15 15
WGst 30 30 30 30 30 30 30 22 22 22 22 22 22 22

Raw TAF
KORD 120303Z 1203/1306 33018G30KT P6SM OVC025
  FM121100 32015G22KT P6SM SCT035 SCT200
  FM122300 31009KT P6SM OVC100


Raw METAR
KORD 120351Z 33020G30KT 9SM OVC018 00/M03 A2986 RMK AO2 PK WND 34030/0343 SLP118 T00001033
KORD 120251Z 33018G23KT 9SM BKN018 OVC036 00/M03 A2982 RMK AO2 SLP106 60001 T00001028 53024
KORD 120227Z 33015G23KT 8SM BKN018 BKN036 OVC060 00/M03 A2981 RMK AO2 T00001028
KORD 120151Z 33015KT 8SM FEW020 BKN036 OVC060 01/M02 A2979 RMK AO2 SLP093 T00061022

METAR Board
Radar Display
Forecast Discussion

FOR SITUATIONAL AWARENESS. NOT TO BE USED FOR FLIGHT PLANNING PURPOSES.